createdAt,value
2023-04-08T00:00:40.988Z,25.53
2023-04-08T00:02:03.298Z,28.57
2023-04-08T00:03:25.645Z,29.10
2023-04-08T00:04:47.796Z,31.33
2023-04-08T00:06:09.878Z,37.43
2023-04-08T00:07:31.996Z,31.30
2023-04-08T00:08:54.090Z,24.67
2023-04-08T00:10:16.288Z,32.97
2023-04-08T00:11:38.807Z,33.00
2023-04-08T00:13:01.134Z,32.00
2023-04-08T00:14:23.159Z,31.70
2023-04-08T00:15:45.591Z,35.70
2023-04-08T00:17:07.992Z,30.53
2023-04-08T00:18:30.209Z,31.87
2023-04-08T00:19:52.821Z,33.73
2023-04-08T00:21:17.885Z,23.57
2023-04-08T00:22:39.947Z,33.70
2023-04-08T00:24:02.068Z,26.73
2023-04-08T00:25:25.529Z,31.90
2023-04-08T00:26:47.971Z,29.43
2023-04-08T00:28:10.292Z,31.47
2023-04-08T00:29:32.376Z,32.43
2023-04-08T00:30:54.541Z,29.13
2023-04-08T00:32:16.660Z,33.00
2023-04-08T00:33:38.739Z,28.83
2023-04-08T00:35:00.768Z,25.43
2023-04-08T00:36:22.950Z,30.43
2023-04-08T00:37:45.880Z,30.80
2023-04-08T00:39:07.988Z,34.70
2023-04-08T00:40:30.254Z,33.57
2023-04-08T00:41:52.342Z,31.90
2023-04-08T00:43:16.576Z,34.33
2023-04-08T00:44:38.616Z,31.30
2023-04-08T00:46:00.754Z,34.27
2023-04-08T00:47:22.962Z,35.37
2023-04-08T00:48:45.167Z,25.80
2023-04-08T00:50:13.108Z,31.67
2023-04-08T00:51:36.525Z,33.50
2023-04-08T00:52:58.658Z,31.60
2023-04-08T00:54:20.935Z,29.40
2023-04-08T00:55:43.112Z,29.83
2023-04-08T00:57:06.675Z,32.47
2023-04-08T00:58:30.206Z,30.60
2023-04-08T00:59:52.340Z,28.20
2023-04-08T01:01:22.952Z,23.57
2023-04-08T01:02:50.654Z,34.73
2023-04-08T01:04:36.928Z,35.13
2023-04-08T01:05:58.920Z,36.23
2023-04-08T01:07:27.533Z,38.87
2023-04-08T01:08:51.823Z,43.23
2023-04-08T01:10:33.345Z,32.43
2023-04-08T01:11:57.276Z,27.50
2023-04-08T01:13:22.334Z,33.17
2023-04-08T01:14:47.166Z,34.87
2023-04-08T01:16:13.387Z,31.17
2023-04-08T01:17:37.317Z,27.40
2023-04-08T01:19:00.694Z,28.93
2023-04-08T01:20:27.230Z,25.50
2023-04-08T01:21:50.292Z,26.40
2023-04-08T01:23:21.039Z,31.80
2023-04-08T01:24:45.644Z,27.60
2023-04-08T01:26:07.858Z,39.90
2023-04-08T01:27:32.020Z,30.50
2023-04-08T01:28:57.577Z,33.70
2023-04-08T01:30:21.958Z,35.43
2023-04-08T01:31:44.584Z,27.03
2023-04-08T01:33:07.402Z,42.63
2023-04-08T01:34:30.599Z,36.80
2023-04-08T01:35:54.381Z,33.50
2023-04-08T01:37:17.337Z,33.50
2023-04-08T01:38:40.017Z,30.70
2023-04-08T01:40:03.603Z,55.53
2023-04-08T01:41:25.804Z,41.67
2023-04-08T01:42:49.696Z,34.30
2023-04-08T01:44:14.062Z,28.37
2023-04-08T01:45:36.079Z,31.80
2023-04-08T01:46:58.417Z,33.50
2023-04-08T01:48:21.457Z,30.93
2023-04-08T01:49:44.274Z,34.77
2023-04-08T01:51:07.524Z,33.10
2023-04-08T01:52:30.778Z,32.20
2023-04-08T01:53:53.281Z,39.40
2023-04-08T01:55:16.368Z,33.97
2023-04-08T01:56:41.730Z,29.33
2023-04-08T01:58:07.214Z,26.80
2023-04-08T01:59:34.669Z,30.20
2023-04-08T02:00:58.519Z,31.83
2023-04-08T02:02:22.839Z,38.87
2023-04-08T02:03:46.901Z,44.23
2023-04-08T02:05:09.198Z,37.43
2023-04-08T02:06:32.176Z,31.50
2023-04-08T02:07:54.289Z,30.90
2023-04-08T02:09:16.360Z,25.90
2023-04-08T02:10:38.456Z,29.33
2023-04-08T02:12:01.691Z,35.03
2023-04-08T02:13:23.849Z,32.83
2023-04-08T02:14:46.228Z,27.60
2023-04-08T02:16:21.012Z,28.93
2023-04-08T02:17:56.331Z,31.97
2023-04-08T02:19:43.888Z,28.40
2023-04-08T02:21:15.795Z,33.97
2023-04-08T02:22:50.496Z,32.43
2023-04-08T02:24:14.669Z,32.97
2023-04-08T02:25:40.260Z,34.53
2023-04-08T02:27:04.072Z,30.27
2023-04-08T02:28:27.111Z,30.60
2023-04-08T02:29:50.882Z,33.20
2023-04-08T02:31:14.156Z,28.63
2023-04-08T02:32:37.116Z,36.27
2023-04-08T02:34:00.365Z,31.57
2023-04-08T02:35:23.516Z,29.40
2023-04-08T02:36:47.370Z,35.03
2023-04-08T02:38:11.117Z,30.10
2023-04-08T02:39:33.570Z,30.03
2023-04-08T02:40:55.970Z,32.77
2023-04-08T02:42:17.990Z,30.27
2023-04-08T02:43:40.255Z,23.93
2023-04-08T02:45:02.529Z,27.80
2023-04-08T02:46:24.650Z,28.50
2023-04-08T02:47:46.927Z,26.80
2023-04-08T02:49:09.027Z,28.20
2023-04-08T02:50:31.067Z,26.43
2023-04-08T02:51:53.166Z,25.23
2023-04-08T02:53:15.900Z,32.10
2023-04-08T02:54:37.958Z,24.53
2023-04-08T02:56:00.473Z,28.50
2023-04-08T02:57:22.534Z,28.87
2023-04-08T02:58:44.581Z,27.50
2023-04-08T03:00:07.565Z,32.40
2023-04-08T03:01:30.527Z,26.90
2023-04-08T03:02:53.155Z,26.50
2023-04-08T03:04:15.440Z,31.07
2023-04-08T03:05:37.452Z,28.97
2023-04-08T03:06:59.486Z,30.17
2023-04-08T03:08:22.113Z,31.20
2023-04-08T03:09:44.173Z,31.53
2023-04-08T03:11:06.344Z,24.57
2023-04-08T03:12:28.481Z,25.57
2023-04-08T03:13:50.619Z,27.87
2023-04-08T03:15:12.651Z,29.97
2023-04-08T03:16:34.738Z,30.60
2023-04-08T03:17:56.931Z,23.97
2023-04-08T03:19:19.037Z,28.47
2023-04-08T03:20:41.191Z,21.87
2023-04-08T03:22:03.202Z,31.50
2023-04-08T03:23:25.320Z,29.87
2023-04-08T03:24:47.369Z,27.37
2023-04-08T03:26:09.478Z,37.17
2023-04-08T03:27:31.747Z,22.90
2023-04-08T03:28:53.836Z,33.03
2023-04-08T03:30:16.047Z,26.47
2023-04-08T03:31:38.301Z,24.87
2023-04-08T03:33:00.402Z,26.80
2023-04-08T03:34:22.528Z,21.97
2023-04-08T03:35:44.651Z,27.30
2023-04-08T03:37:07.150Z,26.60
2023-04-08T03:38:29.242Z,34.30
2023-04-08T03:39:51.319Z,22.63
2023-04-08T03:41:13.341Z,23.47
2023-04-08T03:42:35.516Z,28.83
2023-04-08T03:43:58.479Z,20.40
2023-04-08T03:45:20.607Z,25.87
2023-04-08T03:46:42.725Z,22.30
2023-04-08T03:48:05.092Z,28.00
2023-04-08T03:49:27.246Z,23.73
2023-04-08T03:50:49.301Z,22.23
2023-04-08T03:52:11.415Z,28.03
2023-04-08T03:53:33.469Z,25.20
2023-04-08T03:54:55.603Z,28.20
2023-04-08T03:56:17.716Z,20.47
2023-04-08T03:57:39.834Z,22.90
2023-04-08T03:59:01.884Z,25.67
2023-04-08T04:00:24.011Z,25.83
2023-04-08T04:01:46.478Z,28.57
2023-04-08T04:03:10.752Z,27.07
2023-04-08T04:04:33.759Z,19.57
2023-04-08T04:05:55.921Z,20.10
2023-04-08T04:07:18.014Z,19.90
2023-04-08T04:08:40.225Z,24.40
2023-04-08T04:10:02.524Z,28.10
2023-04-08T04:11:24.566Z,26.77
2023-04-08T04:12:47.567Z,24.87
2023-04-08T04:14:09.664Z,24.23
2023-04-08T04:15:31.744Z,23.20
2023-04-08T04:16:54.206Z,21.93
2023-04-08T04:18:16.443Z,25.50
2023-04-08T04:19:38.566Z,30.30
2023-04-08T04:21:00.691Z,26.30
2023-04-08T04:22:22.747Z,24.40
2023-04-08T04:23:44.863Z,21.20
2023-04-08T04:25:07.399Z,22.03
2023-04-08T04:26:29.452Z,23.97
2023-04-08T04:27:51.564Z,26.60
2023-04-08T04:29:13.721Z,30.10
2023-04-08T04:30:40.015Z,25.53
2023-04-08T04:32:02.057Z,28.13
2023-04-08T04:33:24.141Z,22.33
2023-04-08T04:34:46.335Z,25.60
2023-04-08T04:36:08.735Z,27.53
2023-04-08T04:37:31.327Z,25.40
2023-04-08T04:38:53.858Z,27.63
2023-04-08T04:40:16.347Z,21.97
2023-04-08T04:41:40.622Z,24.40
2023-04-08T04:43:02.751Z,25.00
2023-04-08T04:44:24.851Z,22.73
2023-04-08T04:45:47.190Z,21.03
2023-04-08T04:47:09.606Z,28.30
2023-04-08T04:48:31.640Z,29.60
2023-04-08T04:49:53.736Z,25.30
2023-04-08T04:51:15.945Z,22.97
2023-04-08T04:52:38.199Z,24.93
2023-04-08T04:54:00.461Z,21.30
2023-04-08T04:55:22.582Z,29.53
2023-04-08T04:56:44.615Z,27.77
2023-04-08T04:58:06.678Z,25.80
2023-04-08T04:59:28.748Z,22.53
2023-04-08T05:00:50.783Z,26.20
2023-04-08T05:02:12.959Z,25.40
2023-04-08T05:03:35.344Z,26.93
2023-04-08T05:04:57.531Z,23.17
2023-04-08T05:06:19.675Z,25.07
2023-04-08T05:07:41.765Z,30.83
2023-04-08T05:09:03.832Z,28.90
2023-04-08T05:10:26.005Z,25.73
2023-04-08T05:11:48.016Z,31.13
2023-04-08T05:13:10.176Z,25.10
2023-04-08T05:14:33.364Z,35.73
2023-04-08T05:15:55.664Z,36.17
2023-04-08T05:17:17.741Z,28.73
2023-04-08T05:18:39.907Z,28.23
2023-04-08T05:20:02.285Z,31.30
2023-04-08T05:21:24.679Z,27.83
2023-04-08T05:22:46.886Z,30.50
2023-04-08T05:24:09.542Z,28.73
2023-04-08T05:25:31.805Z,26.93
2023-04-08T05:26:54.044Z,29.67
2023-04-08T05:28:16.349Z,26.60
2023-04-08T05:29:38.428Z,32.03
2023-04-08T05:31:00.524Z,26.37
2023-04-08T05:32:22.959Z,23.47
2023-04-08T05:33:45.571Z,39.20
2023-04-08T05:35:09.534Z,27.63
2023-04-08T05:36:32.370Z,24.03
2023-04-08T05:37:54.638Z,33.20
2023-04-08T05:39:16.738Z,29.87
2023-04-08T05:40:38.826Z,24.57
2023-04-08T05:42:01.240Z,29.77
2023-04-08T05:43:23.326Z,28.87
2023-04-08T05:44:45.597Z,27.53
2023-04-08T05:46:08.974Z,28.03
2023-04-08T05:47:31.183Z,34.50
2023-04-08T05:48:53.256Z,36.17
2023-04-08T05:50:15.315Z,30.03
2023-04-08T05:51:37.404Z,35.00
2023-04-08T05:52:59.459Z,28.80
2023-04-08T05:54:21.545Z,29.93
2023-04-08T05:55:43.629Z,31.80
2023-04-08T05:57:05.729Z,31.10
2023-04-08T05:58:27.861Z,36.97
2023-04-08T05:59:49.958Z,27.80
2023-04-08T06:01:12.078Z,34.17
2023-04-08T06:02:35.107Z,30.83
2023-04-08T06:03:57.476Z,30.53
2023-04-08T06:05:19.755Z,31.70
2023-04-08T06:06:41.772Z,30.30
2023-04-08T06:08:03.960Z,27.93
2023-04-08T06:09:26.521Z,32.80
2023-04-08T06:10:50.343Z,26.67
2023-04-08T06:12:12.375Z,28.10
2023-04-08T06:13:34.602Z,41.27
2023-04-08T06:14:56.828Z,31.77
2023-04-08T06:16:20.941Z,26.90
2023-04-08T06:17:43.490Z,32.03
2023-04-08T06:19:05.519Z,31.40
2023-04-08T06:20:28.294Z,34.83
2023-04-08T06:21:51.452Z,34.57
2023-04-08T06:23:13.947Z,27.40
2023-04-08T06:24:35.981Z,32.63
2023-04-08T06:25:58.576Z,31.90
2023-04-08T06:27:20.970Z,34.27
2023-04-08T06:28:42.989Z,32.13
2023-04-08T06:30:05.643Z,31.03
2023-04-08T06:31:27.753Z,31.40
2023-04-08T06:32:49.834Z,26.67
2023-04-08T06:34:11.892Z,29.30
2023-04-08T06:35:33.979Z,29.00
2023-04-08T06:36:55.972Z,30.50
2023-04-08T06:38:18.080Z,32.03
2023-04-08T06:39:40.278Z,30.23
2023-04-08T06:41:08.767Z,31.50
2023-04-08T06:42:30.999Z,33.77
2023-04-08T06:43:53.049Z,33.93
2023-04-08T06:45:15.629Z,31.07
2023-04-08T06:46:37.931Z,30.23
2023-04-08T06:48:00.431Z,32.00
2023-04-08T06:49:22.706Z,34.87
2023-04-08T06:50:44.761Z,35.40
2023-04-08T06:52:06.933Z,34.27
2023-04-08T06:53:33.420Z,32.73
2023-04-08T06:54:55.928Z,27.33
2023-04-08T06:56:18.098Z,36.97
2023-04-08T06:57:40.342Z,30.93
2023-04-08T06:59:03.143Z,32.60
2023-04-08T07:00:25.392Z,35.63
2023-04-08T07:01:47.692Z,35.70
2023-04-08T07:03:11.440Z,33.87
2023-04-08T07:04:33.573Z,30.97
2023-04-08T07:05:55.892Z,29.30
2023-04-08T07:07:18.743Z,36.43
2023-04-08T07:08:40.972Z,38.43
2023-04-08T07:10:03.281Z,31.03
2023-04-08T07:11:25.692Z,29.03
2023-04-08T07:12:47.833Z,33.77
2023-04-08T07:14:10.121Z,29.33
2023-04-08T07:15:32.287Z,32.23
2023-04-08T07:16:54.419Z,31.80
2023-04-08T07:18:16.653Z,33.43
2023-04-08T07:19:38.988Z,27.97
2023-04-08T07:21:01.066Z,28.33
2023-04-08T07:22:23.181Z,36.20
2023-04-08T07:23:45.378Z,28.43
2023-04-08T07:25:07.698Z,24.50
2023-04-08T07:26:29.730Z,31.90
2023-04-08T07:27:52.859Z,34.60
2023-04-08T07:29:15.823Z,34.17
2023-04-08T07:30:37.989Z,25.50
2023-04-08T07:32:00.292Z,30.27
2023-04-08T07:33:23.743Z,29.53
2023-04-08T07:34:46.203Z,33.87
2023-04-08T07:36:10.452Z,32.87
2023-04-08T07:38:39.010Z,24.20
2023-04-08T07:40:01.211Z,27.53
2023-04-08T07:41:23.329Z,31.20
2023-04-08T07:42:45.396Z,25.57
2023-04-08T07:44:07.613Z,25.07
2023-04-08T07:45:29.839Z,29.70
2023-04-08T07:46:51.993Z,32.40
2023-04-08T07:48:14.060Z,26.57
2023-04-08T07:49:36.618Z,29.40
2023-04-08T07:51:08.303Z,37.60
2023-04-08T07:52:33.161Z,26.60
2023-04-08T07:53:55.578Z,34.37
2023-04-08T07:55:17.726Z,30.60
2023-04-08T07:56:40.449Z,30.10
2023-04-08T07:58:02.693Z,28.60
2023-04-08T07:59:24.860Z,29.10
2023-04-08T08:00:46.920Z,22.07
2023-04-08T08:02:09.016Z,25.83
2023-04-08T08:03:33.298Z,23.33
2023-04-08T08:04:56.102Z,26.13
2023-04-08T08:06:18.400Z,24.23
2023-04-08T08:07:40.529Z,23.43
2023-04-08T08:09:04.325Z,31.07
2023-04-08T08:10:27.467Z,25.83
2023-04-08T08:11:49.563Z,23.70
2023-04-08T08:13:15.100Z,23.80
2023-04-08T08:14:37.215Z,24.20
2023-04-08T08:15:59.323Z,18.90
2023-04-08T08:17:21.864Z,21.83
2023-04-08T08:18:44.059Z,22.93
2023-04-08T08:20:07.200Z,21.10
2023-04-08T08:21:29.262Z,22.80
2023-04-08T08:22:57.075Z,17.00
2023-04-08T08:24:19.877Z,20.13
2023-04-08T08:25:42.312Z,24.03
2023-04-08T08:27:06.050Z,24.20
2023-04-08T08:28:28.487Z,21.30
2023-04-08T08:29:51.099Z,20.47
2023-04-08T08:31:13.636Z,22.33
2023-04-08T08:32:36.415Z,23.13
2023-04-08T08:33:58.554Z,19.93
2023-04-08T08:35:20.733Z,29.57
2023-04-08T08:36:42.855Z,19.93
2023-04-08T08:38:05.028Z,20.00
2023-04-08T08:39:27.290Z,25.07
2023-04-08T08:40:56.308Z,17.27
2023-04-08T08:42:25.994Z,21.77
2023-04-08T08:43:49.344Z,27.90
2023-04-08T08:45:11.633Z,27.90
2023-04-08T08:46:34.404Z,20.50
2023-04-08T08:47:57.800Z,21.03
2023-04-08T08:49:20.183Z,21.73
2023-04-08T08:50:42.358Z,17.30
2023-04-08T08:52:04.580Z,18.40
2023-04-08T08:53:35.725Z,19.23
2023-04-08T08:54:59.778Z,18.47
2023-04-08T08:56:22.373Z,19.13
2023-04-08T08:57:45.335Z,13.70
2023-04-08T08:59:07.622Z,19.10
2023-04-08T09:00:34.863Z,25.30
2023-04-08T09:01:57.444Z,19.03
2023-04-08T09:03:27.913Z,18.97
2023-04-08T09:05:03.947Z,22.13
2023-04-08T09:06:26.520Z,24.43
2023-04-08T09:07:48.678Z,15.13
2023-04-08T09:09:11.116Z,16.27
2023-04-08T09:10:33.260Z,15.70
2023-04-08T09:12:04.624Z,19.20
2023-04-08T09:13:36.736Z,19.00
2023-04-08T09:15:09.676Z,24.83
2023-04-08T09:16:32.277Z,20.03
2023-04-08T09:17:54.483Z,18.10
2023-04-08T09:19:16.767Z,19.80
2023-04-08T09:20:52.648Z,21.13
2023-04-08T09:22:14.781Z,15.80
2023-04-08T09:23:45.571Z,17.83
2023-04-08T09:25:25.798Z,17.37
2023-04-08T09:26:48.055Z,20.57
2023-04-08T09:28:22.507Z,21.30
2023-04-08T09:29:44.627Z,18.37
2023-04-08T09:31:18.575Z,21.50
2023-04-08T09:32:57.404Z,10.23
2023-04-08T09:34:21.797Z,14.37
2023-04-08T09:35:46.679Z,12.33
2023-04-08T09:37:08.824Z,16.00
2023-04-08T09:38:31.115Z,15.87
2023-04-08T09:39:53.236Z,14.17
2023-04-08T09:41:17.620Z,13.50
2023-04-08T09:42:48.727Z,16.13
2023-04-08T09:44:12.183Z,21.20
2023-04-08T09:45:37.810Z,11.90
2023-04-08T09:47:12.777Z,13.63
2023-04-08T09:48:41.332Z,15.70
2023-04-08T09:50:07.015Z,16.90
2023-04-08T09:51:34.994Z,16.07
2023-04-08T09:53:10.220Z,11.47
2023-04-08T09:54:53.380Z,11.90
2023-04-08T09:56:19.714Z,22.77
2023-04-08T09:57:46.596Z,19.10
2023-04-08T09:59:14.085Z,12.70
2023-04-08T10:00:41.201Z,17.40
2023-04-08T10:02:09.400Z,12.93
2023-04-08T10:03:40.472Z,17.53
2023-04-08T10:05:08.171Z,15.93
2023-04-08T10:06:31.440Z,15.00
2023-04-08T10:07:55.748Z,18.90
2023-04-08T10:09:18.059Z,16.77
2023-04-08T10:10:41.716Z,15.27
2023-04-08T10:12:04.862Z,18.87
2023-04-08T10:13:32.133Z,18.07
2023-04-08T10:15:22.101Z,16.00
2023-04-08T10:16:44.628Z,16.50
2023-04-08T10:18:09.649Z,16.83
2023-04-08T10:19:41.000Z,15.60
2023-04-08T10:21:03.589Z,15.50
2023-04-08T10:22:34.615Z,14.97
2023-04-08T10:23:59.905Z,16.63
2023-04-08T10:25:47.658Z,13.53
2023-04-08T10:27:40.586Z,12.83
2023-04-08T10:29:17.838Z,22.77
2023-04-08T10:30:42.086Z,11.97
2023-04-08T10:32:04.442Z,23.97
2023-04-08T10:33:29.520Z,19.30
2023-04-08T10:34:53.586Z,19.63
2023-04-08T10:36:16.505Z,15.23
2023-04-08T10:37:38.890Z,13.97
2023-04-08T10:39:01.203Z,14.50
2023-04-08T10:40:23.339Z,13.67
2023-04-08T10:41:50.039Z,12.20
2023-04-08T10:43:14.124Z,12.57
2023-04-08T10:44:36.262Z,10.97
2023-04-08T10:45:58.374Z,14.90
2023-04-08T10:47:26.340Z,13.23
2023-04-08T10:49:00.676Z,13.90
2023-04-08T10:50:25.701Z,12.63
2023-04-08T10:51:49.124Z,14.87
2023-04-08T10:53:11.320Z,13.93
2023-04-08T10:54:33.543Z,16.60
2023-04-08T10:56:07.315Z,21.70
2023-04-08T10:57:30.431Z,14.87
2023-04-08T10:58:59.073Z,12.47
2023-04-08T11:00:34.567Z,15.20
2023-04-08T11:01:57.189Z,16.20
2023-04-08T11:03:19.786Z,17.80
2023-04-08T11:04:45.304Z,15.53
2023-04-08T11:06:07.543Z,13.17
2023-04-08T11:07:29.951Z,14.33
2023-04-08T11:08:52.172Z,15.27
2023-04-08T11:10:14.341Z,18.40
2023-04-08T11:11:37.071Z,17.30
2023-04-08T11:12:59.466Z,17.93
2023-04-08T11:14:23.537Z,13.77
2023-04-08T11:15:45.951Z,15.40
2023-04-08T11:17:09.021Z,14.80
2023-04-08T11:18:32.229Z,11.10
2023-04-08T11:19:55.008Z,12.73
2023-04-08T11:21:17.390Z,13.00
2023-04-08T11:22:40.345Z,13.10
2023-04-08T11:24:07.089Z,7.57
2023-04-08T11:25:29.741Z,12.30
2023-04-08T11:26:51.931Z,15.73
2023-04-08T11:28:15.175Z,15.13
2023-04-08T11:29:38.187Z,12.23
2023-04-08T11:31:00.570Z,14.90
2023-04-08T11:32:23.604Z,11.30
2023-04-08T11:33:49.995Z,13.90
2023-04-08T11:35:12.293Z,13.40
2023-04-08T11:36:36.624Z,10.13
2023-04-08T11:37:58.968Z,12.80
2023-04-08T11:39:23.729Z,13.90
2023-04-08T11:40:56.559Z,13.77
2023-04-08T11:42:32.846Z,8.00
2023-04-08T11:43:56.930Z,12.80
2023-04-08T11:45:23.695Z,13.93
2023-04-08T11:46:55.472Z,16.40
2023-04-08T11:48:18.321Z,13.90
2023-04-08T11:49:47.619Z,12.30
2023-04-08T11:51:09.771Z,15.67
2023-04-08T11:52:48.531Z,16.60
2023-04-08T11:54:29.764Z,16.90
2023-04-08T11:55:52.482Z,20.20
2023-04-08T11:57:15.475Z,11.63
2023-04-08T11:58:37.587Z,12.93
2023-04-08T12:00:00.478Z,15.93
2023-04-08T12:01:22.658Z,14.73
2023-04-08T12:02:45.205Z,16.63
2023-04-08T12:04:10.422Z,14.80
2023-04-08T12:05:33.126Z,11.07
2023-04-08T12:06:56.926Z,13.83
2023-04-08T12:08:20.357Z,11.53
2023-04-08T12:09:42.420Z,16.70
2023-04-08T12:11:18.868Z,14.17
2023-04-08T12:12:41.945Z,12.70
2023-04-08T12:14:04.442Z,16.13
2023-04-08T12:15:26.536Z,17.07
2023-04-08T12:16:48.663Z,15.03
2023-04-08T12:18:11.184Z,13.63
2023-04-08T12:19:34.436Z,17.13
2023-04-08T12:20:57.396Z,13.00
2023-04-08T12:22:19.540Z,13.90
2023-04-08T12:23:41.819Z,17.70
2023-04-08T12:25:04.363Z,14.30
2023-04-08T12:26:27.092Z,16.93
2023-04-08T12:27:49.696Z,13.97
2023-04-08T12:29:11.824Z,13.27
2023-04-08T12:30:33.843Z,12.83
2023-04-08T12:31:56.166Z,12.43
2023-04-08T12:33:18.492Z,13.67
2023-04-08T12:34:40.584Z,14.43
2023-04-08T12:36:03.247Z,13.33
2023-04-08T12:37:25.435Z,10.37
2023-04-08T12:38:47.573Z,15.13
2023-04-08T12:40:09.881Z,13.83
2023-04-08T12:41:32.053Z,13.93
2023-04-08T12:42:54.122Z,11.53
2023-04-08T12:44:16.522Z,14.40
2023-04-08T12:45:38.593Z,16.63
2023-04-08T12:47:00.985Z,11.60
2023-04-08T12:48:23.071Z,11.57
2023-04-08T12:51:10.531Z,13.20
2023-04-08T12:52:33.272Z,16.10
2023-04-08T12:53:55.454Z,9.87
2023-04-08T12:55:18.303Z,14.80
2023-04-08T12:56:40.766Z,15.07
2023-04-08T12:58:02.860Z,14.00
2023-04-08T12:59:24.909Z,10.67
2023-04-08T13:00:47.041Z,14.23
2023-04-08T13:02:09.227Z,9.10
2023-04-08T13:03:31.993Z,8.73
2023-04-08T13:04:55.210Z,10.33
2023-04-08T13:06:17.287Z,10.17
2023-04-08T13:07:39.403Z,14.17
2023-04-08T13:09:01.582Z,7.00
2023-04-08T13:10:23.601Z,15.47
2023-04-08T13:11:45.898Z,12.98
2023-04-08T13:13:08.097Z,13.93
2023-04-08T13:14:30.505Z,9.67
2023-04-08T13:15:52.923Z,12.23
2023-04-08T13:17:15.677Z,9.00
2023-04-08T13:18:37.773Z,17.03
2023-04-08T13:19:59.884Z,8.63
2023-04-08T13:21:22.019Z,11.67
2023-04-08T13:22:44.183Z,19.43
2023-04-08T13:24:06.647Z,10.83
2023-04-08T13:25:28.794Z,14.10
2023-04-08T13:26:51.565Z,11.03
2023-04-08T13:28:13.966Z,13.93
2023-04-08T13:29:36.121Z,13.00
2023-04-08T13:30:58.333Z,12.63
2023-04-08T13:32:20.793Z,16.47
2023-04-08T13:33:42.917Z,10.97
2023-04-08T13:35:05.502Z,12.93
2023-04-08T13:36:28.858Z,7.40
2023-04-08T13:37:51.311Z,12.80
2023-04-08T13:39:13.637Z,11.07
2023-04-08T13:40:36.180Z,14.67
2023-04-08T13:41:58.512Z,12.70
2023-04-08T13:43:20.641Z,9.10
2023-04-08T13:44:42.729Z,12.13
2023-04-08T13:46:04.874Z,11.93
2023-04-08T13:47:27.144Z,10.23
2023-04-08T13:48:49.573Z,10.30
2023-04-08T13:50:12.263Z,16.53
2023-04-08T13:51:34.340Z,11.10
2023-04-08T13:52:57.109Z,14.67
2023-04-08T13:54:19.145Z,13.63
2023-04-08T13:55:41.176Z,9.40
2023-04-08T13:57:03.232Z,13.70
2023-04-08T13:58:26.488Z,7.63
2023-04-08T13:59:48.609Z,10.97
2023-04-08T14:01:10.663Z,8.50
2023-04-08T14:02:32.845Z,9.83
2023-04-08T14:03:54.942Z,13.70
2023-04-08T14:05:17.131Z,10.53
2023-04-08T14:06:39.224Z,16.83
2023-04-08T14:08:01.401Z,16.60
2023-04-08T14:09:24.193Z,8.83
2023-04-08T14:10:46.623Z,9.33
2023-04-08T14:12:08.692Z,15.70
2023-04-08T14:13:32.273Z,10.07
2023-04-08T14:14:54.392Z,12.93
2023-04-08T14:16:16.732Z,11.80
2023-04-08T14:17:38.901Z,12.87
2023-04-08T14:19:01.105Z,11.40
2023-04-08T14:20:23.167Z,11.90
2023-04-08T14:21:45.291Z,7.30
2023-04-08T14:23:07.437Z,12.10
2023-04-08T14:24:29.477Z,11.00
2023-04-08T14:25:51.493Z,11.80
2023-04-08T14:27:13.610Z,14.90
2023-04-08T14:28:36.612Z,13.60
2023-04-08T14:29:58.811Z,12.87
2023-04-08T14:31:21.127Z,10.33
2023-04-08T14:32:43.285Z,11.02
2023-04-08T14:34:05.501Z,8.97
2023-04-08T14:35:27.607Z,14.23
2023-04-08T14:36:49.676Z,12.60
2023-04-08T14:38:11.755Z,10.60
2023-04-08T14:39:33.831Z,16.40
2023-04-08T14:40:55.890Z,8.10
2023-04-08T14:42:18.468Z,10.27
2023-04-08T14:43:40.717Z,10.63
2023-04-08T14:45:03.401Z,11.40
2023-04-08T14:46:28.791Z,8.47
2023-04-08T14:47:51.392Z,11.70
2023-04-08T14:49:13.471Z,12.27
2023-04-08T14:50:35.516Z,14.13
2023-04-08T14:51:57.746Z,11.63
2023-04-08T14:53:19.846Z,11.93
2023-04-08T14:54:44.105Z,13.00
2023-04-08T14:56:08.892Z,13.50
2023-04-08T14:57:31.952Z,12.70
2023-04-08T14:58:53.982Z,11.43
2023-04-08T15:00:16.347Z,6.40
2023-04-08T15:01:38.527Z,9.43
2023-04-08T15:03:00.957Z,13.80
2023-04-08T15:04:23.408Z,10.33
2023-04-08T15:05:45.654Z,10.20
2023-04-08T15:07:07.771Z,9.93
2023-04-08T15:08:29.920Z,9.53
2023-04-08T15:09:51.935Z,8.63
2023-04-08T15:11:14.044Z,10.33
2023-04-08T15:12:36.405Z,11.30
2023-04-08T15:13:58.430Z,12.70
2023-04-08T15:15:20.829Z,11.50
2023-04-08T15:16:43.073Z,12.53
2023-04-08T15:18:05.146Z,7.90
2023-04-08T15:19:27.174Z,10.63
2023-04-08T15:20:49.296Z,9.53
2023-04-08T15:22:12.095Z,10.53
2023-04-08T15:23:34.129Z,9.97
2023-04-08T15:24:56.337Z,7.57
2023-04-08T15:26:18.600Z,11.70
2023-04-08T15:27:42.097Z,11.03
2023-04-08T15:29:04.356Z,13.20
2023-04-08T15:30:26.396Z,14.40
2023-04-08T15:31:48.612Z,9.77
2023-04-08T15:33:10.916Z,11.37
2023-04-08T15:34:33.296Z,11.10
2023-04-08T15:35:55.936Z,11.67
2023-04-08T15:37:18.059Z,14.13
2023-04-08T15:38:40.278Z,11.57
2023-04-08T15:40:02.338Z,10.40
2023-04-08T15:41:24.526Z,11.10
2023-04-08T15:42:46.570Z,9.30
2023-04-08T15:44:08.622Z,10.17
2023-04-08T15:45:30.652Z,11.50
2023-04-08T15:46:52.748Z,11.73
2023-04-08T15:48:15.401Z,13.23
2023-04-08T15:49:37.614Z,13.03
2023-04-08T15:51:06.294Z,12.80
2023-04-08T15:52:28.508Z,13.07
2023-04-08T15:53:51.581Z,16.13
2023-04-08T15:55:13.876Z,14.30
2023-04-08T15:56:36.650Z,10.23
2023-04-08T15:57:59.135Z,13.97
2023-04-08T15:59:21.386Z,14.17
2023-04-08T16:00:43.404Z,12.67
2023-04-08T16:02:05.560Z,8.27
2023-04-08T16:03:27.825Z,10.73
2023-04-08T16:04:49.969Z,11.20
2023-04-08T16:06:12.190Z,13.50
2023-04-08T16:07:34.293Z,11.53
2023-04-08T16:08:56.723Z,10.27
2023-04-08T16:10:18.853Z,10.23
2023-04-08T16:11:41.712Z,15.67
2023-04-08T16:13:03.758Z,13.10
2023-04-08T16:14:26.340Z,17.40
2023-04-08T16:15:48.734Z,8.83
2023-04-08T16:17:11.273Z,11.73
2023-04-08T16:18:33.325Z,10.70
2023-04-08T16:19:55.398Z,13.53
2023-04-08T16:21:17.459Z,12.47
2023-04-08T16:22:39.643Z,11.57
2023-04-08T16:24:01.856Z,15.20
2023-04-08T16:25:24.637Z,13.67
2023-04-08T16:26:47.393Z,19.60
2023-04-08T16:28:09.713Z,10.77
2023-04-08T16:29:32.517Z,9.57
2023-04-08T16:30:54.673Z,13.70
2023-04-08T16:32:16.754Z,23.80
2023-04-08T16:33:38.894Z,11.53
2023-04-08T16:35:01.018Z,15.23
2023-04-08T16:36:23.053Z,14.47
2023-04-08T16:37:45.267Z,14.97
2023-04-08T16:39:07.495Z,16.03
2023-04-08T16:40:33.005Z,13.00
2023-04-08T16:41:55.111Z,13.83
2023-04-08T16:43:17.515Z,14.13
2023-04-08T16:44:39.569Z,13.67
2023-04-08T16:46:12.843Z,12.57
2023-04-08T16:47:35.096Z,12.87
2023-04-08T16:48:57.210Z,11.80
2023-04-08T16:50:19.402Z,10.63
2023-04-08T16:51:41.580Z,11.90
2023-04-08T16:53:03.684Z,24.40
2023-04-08T16:54:25.735Z,14.23
2023-04-08T16:55:47.780Z,18.43
2023-04-08T16:57:09.859Z,13.60
2023-04-08T16:58:31.942Z,13.50
2023-04-08T16:59:54.266Z,14.63
2023-04-08T17:01:16.434Z,16.20
2023-04-08T17:02:38.797Z,12.33
2023-04-08T17:04:00.978Z,10.70
2023-04-08T17:05:23.665Z,13.73
2023-04-08T17:06:45.746Z,7.93
2023-04-08T17:08:07.877Z,16.33
2023-04-08T17:09:29.888Z,11.00
2023-04-08T17:10:51.979Z,10.47
2023-04-08T17:12:14.019Z,17.93
2023-04-08T17:13:40.598Z,13.13
2023-04-08T17:15:03.361Z,11.77
2023-04-08T17:16:25.791Z,13.67
2023-04-08T17:17:48.574Z,12.07
2023-04-08T17:19:11.751Z,11.47
2023-04-08T17:20:36.077Z,16.13
2023-04-08T17:21:58.597Z,8.40
2023-04-08T17:23:20.680Z,11.53
2023-04-08T17:24:42.722Z,12.90
2023-04-08T17:26:08.791Z,12.00
2023-04-08T17:27:31.184Z,8.83
2023-04-08T17:28:53.516Z,11.87
2023-04-08T17:30:15.619Z,9.30
2023-04-08T17:31:40.522Z,9.53
2023-04-08T17:33:03.509Z,10.00
2023-04-08T17:34:26.329Z,11.00
2023-04-08T17:35:48.471Z,13.50
2023-04-08T17:37:10.625Z,19.07
2023-04-08T17:38:33.042Z,13.20
2023-04-08T17:39:55.188Z,10.10
2023-04-08T17:41:29.885Z,13.97
2023-04-08T17:42:59.399Z,12.37
2023-04-08T17:44:21.772Z,16.00
2023-04-08T17:45:43.890Z,10.83
2023-04-08T17:47:06.137Z,8.70
2023-04-08T17:48:28.845Z,15.47
2023-04-08T17:49:55.159Z,12.50
2023-04-08T17:51:17.441Z,9.07
2023-04-08T17:52:42.739Z,11.27
2023-04-08T17:54:05.803Z,9.50
2023-04-08T17:55:28.140Z,11.00
2023-04-08T17:56:50.286Z,13.00
2023-04-08T17:58:12.417Z,13.90
2023-04-08T17:59:34.577Z,19.67
2023-04-08T18:00:56.672Z,13.93